Página principal
METAR-TAF:

METAR-TAF

Aeroportos :

Trípoli, Líbia

Aeroporto Internacional de Mitiga

latitude: 32-54N, longitude: 13-17E, altura: 11 m

Observação actual do tempo

O boletim foi feito há 12 minutos, às 19:50 UTC
Vento 2 kt de es-sudeste
Temperatura 14°C
Humidade 67%
Pressão 1022 hPa
Visibilidade: 6000 m
Céu limpo

METAR: HLLM 121950Z 11002KT 6000 SKC 14/08 Q1022

Hora: 22:02 (20:02 UTC)

Previsão

O boletim foi feito há 9 horas e 2 minutos, às 11:00 UTC
Previsão válida de 12 às 12 UTC a 13 às 12 UTC
Vento 10 kt de su-sudoeste
Visibilidade: 8000 m
Poucas nuvensa uma altura de 3000 ft
Tornando-se
de 12 às 14 UTC a 12 às 16 UTC
Vento 2 kt com direcção variável
Tornando-se
de 12 às 22 UTC a 12 às 24 UTC
Vento 12 kt de su-sudeste
Tornando-se
de 13 às 10 UTC a 13 às 12 UTC
Vento 12 kt de oes-noroeste

TAF: HLLM 121100Z 1212/1312 20010KT 8000 FEW030 BECMG 1214/1216 VRB02KT BECMG 1222/1224 15012KT BECMG 1310/1312 30012KT

Observações e previsões do tempo de mais de 4000 aeroportos (mensagens METAR e TAF).

As estações disponíveis são os pontos amarelos e vermelhos sobre o mapa.

Mova o rato sobre o mapa para ver o nome da estação.

Depois clique no ponto para visualizar as observações e previsões meteorológicas.

Para alterar o mapa : clique nos botões verdes com uma cruz preta para aumentar o zoom; no botão verde com uma pitada de zoom; ou nas setas verdes para mapas adjacentes.


METAR-TAF: